sensor_id;sensor_type;location;lat;lon;timestamp;P1;durP1;ratioP1;P2;durP2;ratioP2
64653;SDS011;51065;48.884;12.598;2023-05-07T00:02:05;7.55;;;3.85;;
64653;SDS011;51065;48.884;12.598;2023-05-07T00:04:32;7.90;;;3.75;;
64653;SDS011;51065;48.884;12.598;2023-05-07T00:07:01;7.78;;;3.88;;
64653;SDS011;51065;48.884;12.598;2023-05-07T00:09:27;6.45;;;3.70;;
64653;SDS011;51065;48.884;12.598;2023-05-07T00:11:53;8.60;;;3.47;;
64653;SDS011;51065;48.884;12.598;2023-05-07T00:14:18;7.50;;;3.60;;
64653;SDS011;51065;48.884;12.598;2023-05-07T00:16:44;6.70;;;3.50;;
64653;SDS011;51065;48.884;12.598;2023-05-07T00:19:10;7.35;;;3.25;;
64653;SDS011;51065;48.884;12.598;2023-05-07T00:21:35;8.70;;;3.60;;
64653;SDS011;51065;48.884;12.598;2023-05-07T00:24:01;6.80;;;3.38;;
64653;SDS011;51065;48.884;12.598;2023-05-07T00:26:26;7.47;;;3.55;;
64653;SDS011;51065;48.884;12.598;2023-05-07T00:28:55;8.13;;;3.72;;
64653;SDS011;51065;48.884;12.598;2023-05-07T00:31:32;6.63;;;3.35;;
64653;SDS011;51065;48.884;12.598;2023-05-07T00:34:03;6.50;;;3.47;;
64653;SDS011;51065;48.884;12.598;2023-05-07T00:36:29;6.68;;;3.30;;
64653;SDS011;51065;48.884;12.598;2023-05-07T00:38:56;6.68;;;3.55;;
64653;SDS011;51065;48.884;12.598;2023-05-07T00:41:23;7.68;;;3.60;;
64653;SDS011;51065;48.884;12.598;2023-05-07T00:43:49;8.85;;;3.92;;
64653;SDS011;51065;48.884;12.598;2023-05-07T00:46:16;12.77;;;3.90;;
64653;SDS011;51065;48.884;12.598;2023-05-07T00:48:42;8.52;;;3.90;;
64653;SDS011;51065;48.884;12.598;2023-05-07T00:51:09;6.75;;;3.50;;
64653;SDS011;51065;48.884;12.598;2023-05-07T00:53:36;7.75;;;3.20;;
64653;SDS011;51065;48.884;12.598;2023-05-07T00:56:10;7.20;;;3.03;;
64653;SDS011;51065;48.884;12.598;2023-05-07T00:58:46;7.45;;;3.05;;
64653;SDS011;51065;48.884;12.598;2023-05-07T01:01:12;7.75;;;3.28;;
64653;SDS011;51065;48.884;12.598;2023-05-07T01:03:41;8.65;;;3.75;;
64653;SDS011;51065;48.884;12.598;2023-05-07T01:06:07;6.03;;;3.15;;
64653;SDS011;51065;48.884;12.598;2023-05-07T01:08:34;9.13;;;3.50;;
64653;SDS011;51065;48.884;12.598;2023-05-07T01:11:01;8.70;;;3.83;;
64653;SDS011;51065;48.884;12.598;2023-05-07T01:13:28;7.47;;;3.17;;
64653;SDS011;51065;48.884;12.598;2023-05-07T01:15:54;9.90;;;3.88;;
64653;SDS011;51065;48.884;12.598;2023-05-07T01:18:20;5.78;;;2.88;;
64653;SDS011;51065;48.884;12.598;2023-05-07T01:21:32;7.63;;;3.17;;
64653;SDS011;51065;48.884;12.598;2023-05-07T01:23:35;6.95;;;3.40;;
64653;SDS011;51065;48.884;12.598;2023-05-07T01:26:01;6.82;;;3.35;;
64653;SDS011;51065;48.884;12.598;2023-05-07T01:28:27;7.32;;;3.65;;
64653;SDS011;51065;48.884;12.598;2023-05-07T01:30:53;6.75;;;3.65;;
64653;SDS011;51065;48.884;12.598;2023-05-07T01:33:21;5.95;;;3.05;;
64653;SDS011;51065;48.884;12.598;2023-05-07T01:35:50;8.02;;;3.15;;
64653;SDS011;51065;48.884;12.598;2023-05-07T01:38:18;7.95;;;3.53;;
64653;SDS011;51065;48.884;12.598;2023-05-07T01:40:44;7.68;;;3.78;;
64653;SDS011;51065;48.884;12.598;2023-05-07T01:43:13;7.20;;;3.35;;
64653;SDS011;51065;48.884;12.598;2023-05-07T01:45:39;7.38;;;3.50;;
64653;SDS011;51065;48.884;12.598;2023-05-07T01:48:06;8.07;;;3.30;;
64653;SDS011;51065;48.884;12.598;2023-05-07T01:50:33;8.38;;;3.50;;
64653;SDS011;51065;48.884;12.598;2023-05-07T01:53:02;6.25;;;3.50;;
64653;SDS011;51065;48.884;12.598;2023-05-07T01:55:27;8.23;;;3.35;;
64653;SDS011;51065;48.884;12.598;2023-05-07T01:57:53;9.63;;;3.53;;
64653;SDS011;51065;48.884;12.598;2023-05-07T02:00:18;6.03;;;3.30;;
64653;SDS011;51065;48.884;12.598;2023-05-07T02:02:44;7.53;;;3.33;;
64653;SDS011;51065;48.884;12.598;2023-05-07T02:05:10;6.68;;;3.33;;
64653;SDS011;51065;48.884;12.598;2023-05-07T02:07:35;7.25;;;3.47;;
64653;SDS011;51065;48.884;12.598;2023-05-07T02:10:01;6.85;;;3.50;;
64653;SDS011;51065;48.884;12.598;2023-05-07T02:12:27;6.78;;;3.15;;
64653;SDS011;51065;48.884;12.598;2023-05-07T02:14:53;6.68;;;3.38;;
64653;SDS011;51065;48.884;12.598;2023-05-07T02:17:19;7.43;;;3.40;;
64653;SDS011;51065;48.884;12.598;2023-05-07T02:19:45;6.97;;;3.75;;
64653;SDS011;51065;48.884;12.598;2023-05-07T02:22:10;7.32;;;3.58;;
64653;SDS011;51065;48.884;12.598;2023-05-07T02:24:36;7.95;;;3.95;;
64653;SDS011;51065;48.884;12.598;2023-05-07T02:27:01;7.13;;;3.95;;
64653;SDS011;51065;48.884;12.598;2023-05-07T02:29:28;8.50;;;4.25;;
64653;SDS011;51065;48.884;12.598;2023-05-07T02:31:53;8.88;;;4.22;;
64653;SDS011;51065;48.884;12.598;2023-05-07T02:34:19;8.13;;;4.03;;
64653;SDS011;51065;48.884;12.598;2023-05-07T02:36:45;13.15;;;5.18;;
64653;SDS011;51065;48.884;12.598;2023-05-07T02:39:10;9.63;;;4.22;;
64653;SDS011;51065;48.884;12.598;2023-05-07T02:41:37;9.75;;;4.53;;
64653;SDS011;51065;48.884;12.598;2023-05-07T02:44:02;8.38;;;4.22;;
64653;SDS011;51065;48.884;12.598;2023-05-07T02:46:28;10.68;;;4.72;;
64653;SDS011;51065;48.884;12.598;2023-05-07T02:48:53;8.32;;;4.13;;
64653;SDS011;51065;48.884;12.598;2023-05-07T02:51:20;8.05;;;4.20;;
64653;SDS011;51065;48.884;12.598;2023-05-07T02:53:46;9.82;;;4.65;;
64653;SDS011;51065;48.884;12.598;2023-05-07T02:56:12;8.18;;;4.30;;
64653;SDS011;51065;48.884;12.598;2023-05-07T02:58:38;8.32;;;3.92;;
64653;SDS011;51065;48.884;12.598;2023-05-07T03:01:09;9.60;;;4.15;;
64653;SDS011;51065;48.884;12.598;2023-05-07T03:03:35;8.90;;;4.57;;
64653;SDS011;51065;48.884;12.598;2023-05-07T03:06:01;8.30;;;4.18;;
64653;SDS011;51065;48.884;12.598;2023-05-07T03:08:26;8.40;;;4.10;;
64653;SDS011;51065;48.884;12.598;2023-05-07T03:10:52;10.13;;;4.10;;
64653;SDS011;51065;48.884;12.598;2023-05-07T03:13:18;8.30;;;4.22;;
64653;SDS011;51065;48.884;12.598;2023-05-07T03:15:43;7.75;;;3.90;;
64653;SDS011;51065;48.884;12.598;2023-05-07T03:18:09;7.65;;;3.90;;
64653;SDS011;51065;48.884;12.598;2023-05-07T03:20:35;9.35;;;3.78;;
64653;SDS011;51065;48.884;12.598;2023-05-07T03:23:01;8.82;;;3.53;;
64653;SDS011;51065;48.884;12.598;2023-05-07T03:25:27;7.75;;;4.10;;
64653;SDS011;51065;48.884;12.598;2023-05-07T03:27:56;10.70;;;4.55;;
64653;SDS011;51065;48.884;12.598;2023-05-07T03:30:21;9.18;;;4.00;;
64653;SDS011;51065;48.884;12.598;2023-05-07T03:32:59;9.45;;;4.28;;
64653;SDS011;51065;48.884;12.598;2023-05-07T03:35:24;10.48;;;4.15;;
64653;SDS011;51065;48.884;12.598;2023-05-07T03:37:50;12.30;;;4.80;;
64653;SDS011;51065;48.884;12.598;2023-05-07T03:40:15;9.73;;;4.10;;
64653;SDS011;51065;48.884;12.598;2023-05-07T03:42:41;9.55;;;4.15;;
64653;SDS011;51065;48.884;12.598;2023-05-07T03:45:07;9.02;;;4.15;;
64653;SDS011;51065;48.884;12.598;2023-05-07T03:47:33;9.55;;;3.97;;
64653;SDS011;51065;48.884;12.598;2023-05-07T03:49:58;8.73;;;4.30;;
64653;SDS011;51065;48.884;12.598;2023-05-07T03:52:24;9.98;;;4.45;;
64653;SDS011;51065;48.884;12.598;2023-05-07T03:54:51;9.00;;;4.05;;
64653;SDS011;51065;48.884;12.598;2023-05-07T03:57:19;10.55;;;4.22;;
64653;SDS011;51065;48.884;12.598;2023-05-07T03:59:45;10.73;;;4.65;;
64653;SDS011;51065;48.884;12.598;2023-05-07T04:02:20;11.38;;;4.82;;
64653;SDS011;51065;48.884;12.598;2023-05-07T04:04:45;9.73;;;4.93;;
64653;SDS011;51065;48.884;12.598;2023-05-07T04:07:13;10.15;;;4.95;;
64653;SDS011;51065;48.884;12.598;2023-05-07T04:09:38;11.40;;;5.40;;
64653;SDS011;51065;48.884;12.598;2023-05-07T04:12:04;13.07;;;5.78;;
64653;SDS011;51065;48.884;12.598;2023-05-07T04:14:29;12.60;;;5.43;;
64653;SDS011;51065;48.884;12.598;2023-05-07T04:16:57;14.10;;;5.85;;
64653;SDS011;51065;48.884;12.598;2023-05-07T04:19:23;10.00;;;4.93;;
64653;SDS011;51065;48.884;12.598;2023-05-07T04:21:48;11.07;;;5.30;;
64653;SDS011;51065;48.884;12.598;2023-05-07T04:24:14;9.50;;;4.90;;
64653;SDS011;51065;48.884;12.598;2023-05-07T04:26:40;11.68;;;4.80;;
64653;SDS011;51065;48.884;12.598;2023-05-07T04:29:08;12.30;;;5.13;;
64653;SDS011;51065;48.884;12.598;2023-05-07T04:31:34;9.63;;;4.75;;
64653;SDS011;51065;48.884;12.598;2023-05-07T04:34:00;8.93;;;4.32;;
64653;SDS011;51065;48.884;12.598;2023-05-07T04:36:26;9.48;;;5.00;;
64653;SDS011;51065;48.884;12.598;2023-05-07T04:38:54;12.63;;;4.45;;
64653;SDS011;51065;48.884;12.598;2023-05-07T04:41:20;10.02;;;4.55;;
64653;SDS011;51065;48.884;12.598;2023-05-07T04:43:46;10.43;;;4.03;;
64653;SDS011;51065;48.884;12.598;2023-05-07T04:46:11;10.13;;;4.50;;
64653;SDS011;51065;48.884;12.598;2023-05-07T04:48:37;8.60;;;4.13;;
64653;SDS011;51065;48.884;12.598;2023-05-07T04:51:02;8.75;;;4.10;;
64653;SDS011;51065;48.884;12.598;2023-05-07T04:53:28;9.43;;;4.05;;
64653;SDS011;51065;48.884;12.598;2023-05-07T04:55:56;8.75;;;4.05;;
64653;SDS011;51065;48.884;12.598;2023-05-07T04:58:23;11.20;;;3.90;;
64653;SDS011;51065;48.884;12.598;2023-05-07T05:00:48;8.10;;;4.22;;
64653;SDS011;51065;48.884;12.598;2023-05-07T05:03:14;8.55;;;3.80;;
64653;SDS011;51065;48.884;12.598;2023-05-07T05:05:40;9.48;;;4.10;;
64653;SDS011;51065;48.884;12.598;2023-05-07T05:08:05;6.78;;;3.35;;
64653;SDS011;51065;48.884;12.598;2023-05-07T05:10:31;9.90;;;4.18;;
64653;SDS011;51065;48.884;12.598;2023-05-07T05:12:59;6.82;;;3.83;;
64653;SDS011;51065;48.884;12.598;2023-05-07T05:15:25;9.00;;;3.70;;
64653;SDS011;51065;48.884;12.598;2023-05-07T05:17:50;6.57;;;3.13;;
64653;SDS011;51065;48.884;12.598;2023-05-07T05:20:16;7.00;;;3.45;;
64653;SDS011;51065;48.884;12.598;2023-05-07T05:22:42;7.72;;;3.80;;
64653;SDS011;51065;48.884;12.598;2023-05-07T05:25:07;8.27;;;3.90;;
64653;SDS011;51065;48.884;12.598;2023-05-07T05:27:33;6.00;;;3.10;;
64653;SDS011;51065;48.884;12.598;2023-05-07T05:30:03;8.45;;;4.18;;
64653;SDS011;51065;48.884;12.598;2023-05-07T05:32:28;7.57;;;4.00;;
64653;SDS011;51065;48.884;12.598;2023-05-07T05:34:54;7.57;;;4.00;;
64653;SDS011;51065;48.884;12.598;2023-05-07T05:37:20;7.53;;;4.00;;
64653;SDS011;51065;48.884;12.598;2023-05-07T05:39:46;8.88;;;4.05;;
64653;SDS011;51065;48.884;12.598;2023-05-07T05:42:11;8.63;;;3.83;;
64653;SDS011;51065;48.884;12.598;2023-05-07T05:44:37;7.05;;;3.70;;
64653;SDS011;51065;48.884;12.598;2023-05-07T05:47:02;6.40;;;3.50;;
64653;SDS011;51065;48.884;12.598;2023-05-07T05:49:28;7.80;;;3.97;;
64653;SDS011;51065;48.884;12.598;2023-05-07T05:51:57;9.18;;;3.70;;
64653;SDS011;51065;48.884;12.598;2023-05-07T05:54:22;8.43;;;3.95;;
64653;SDS011;51065;48.884;12.598;2023-05-07T05:56:48;6.40;;;3.75;;
64653;SDS011;51065;48.884;12.598;2023-05-07T05:59:14;8.63;;;3.38;;
64653;SDS011;51065;48.884;12.598;2023-05-07T06:01:39;5.32;;;3.30;;
64653;SDS011;51065;48.884;12.598;2023-05-07T06:04:05;11.20;;;4.07;;
64653;SDS011;51065;48.884;12.598;2023-05-07T06:06:31;7.75;;;4.05;;
64653;SDS011;51065;48.884;12.598;2023-05-07T06:08:57;6.45;;;3.70;;
64653;SDS011;51065;48.884;12.598;2023-05-07T06:11:22;6.63;;;3.40;;
64653;SDS011;51065;48.884;12.598;2023-05-07T06:13:48;6.30;;;3.10;;
64653;SDS011;51065;48.884;12.598;2023-05-07T06:16:14;6.75;;;3.30;;
64653;SDS011;51065;48.884;12.598;2023-05-07T06:18:40;6.55;;;3.38;;
64653;SDS011;51065;48.884;12.598;2023-05-07T06:21:05;6.43;;;3.58;;
64653;SDS011;51065;48.884;12.598;2023-05-07T06:23:31;6.97;;;3.60;;
64653;SDS011;51065;48.884;12.598;2023-05-07T06:25:56;6.82;;;3.20;;
64653;SDS011;51065;48.884;12.598;2023-05-07T06:28:22;7.47;;;3.63;;
64653;SDS011;51065;48.884;12.598;2023-05-07T06:30:47;6.78;;;2.78;;
64653;SDS011;51065;48.884;12.598;2023-05-07T06:33:15;6.88;;;3.10;;
64653;SDS011;51065;48.884;12.598;2023-05-07T06:35:40;7.45;;;3.40;;
64653;SDS011;51065;48.884;12.598;2023-05-07T06:38:06;6.53;;;3.20;;
64653;SDS011;51065;48.884;12.598;2023-05-07T06:40:32;5.97;;;3.03;;
64653;SDS011;51065;48.884;12.598;2023-05-07T06:42:57;5.15;;;2.95;;
64653;SDS011;51065;48.884;12.598;2023-05-07T06:45:23;6.45;;;3.05;;
64653;SDS011;51065;48.884;12.598;2023-05-07T06:47:50;5.72;;;2.90;;
64653;SDS011;51065;48.884;12.598;2023-05-07T06:50:15;6.38;;;3.00;;
64653;SDS011;51065;48.884;12.598;2023-05-07T06:55:41;4.53;;;2.85;;
64653;SDS011;51065;48.884;12.598;2023-05-07T06:58:06;3.88;;;2.50;;
64653;SDS011;51065;48.884;12.598;2023-05-07T07:00:32;4.43;;;2.58;;
64653;SDS011;51065;48.884;12.598;2023-05-07T07:02:58;5.45;;;2.60;;
64653;SDS011;51065;48.884;12.598;2023-05-07T07:05:25;7.47;;;2.85;;
64653;SDS011;51065;48.884;12.598;2023-05-07T07:07:51;7.28;;;3.05;;
64653;SDS011;51065;48.884;12.598;2023-05-07T07:10:19;4.70;;;2.55;;
64653;SDS011;51065;48.884;12.598;2023-05-07T07:12:45;5.13;;;2.60;;
64653;SDS011;51065;48.884;12.598;2023-05-07T07:15:11;3.75;;;2.47;;
64653;SDS011;51065;48.884;12.598;2023-05-07T07:17:36;4.72;;;2.80;;
64653;SDS011;51065;48.884;12.598;2023-05-07T07:20:11;5.32;;;2.70;;
64653;SDS011;51065;48.884;12.598;2023-05-07T07:22:37;5.50;;;2.75;;
64653;SDS011;51065;48.884;12.598;2023-05-07T07:25:03;5.00;;;2.85;;
64653;SDS011;51065;48.884;12.598;2023-05-07T07:27:37;5.93;;;2.88;;
64653;SDS011;51065;48.884;12.598;2023-05-07T07:30:05;3.92;;;2.70;;
64653;SDS011;51065;48.884;12.598;2023-05-07T07:32:40;5.95;;;2.83;;
64653;SDS011;51065;48.884;12.598;2023-05-07T07:35:36;7.63;;;3.00;;
64653;SDS011;51065;48.884;12.598;2023-05-07T07:38:02;5.30;;;2.58;;
64653;SDS011;51065;48.884;12.598;2023-05-07T07:40:31;4.50;;;2.50;;
64653;SDS011;51065;48.884;12.598;2023-05-07T07:43:00;5.72;;;2.63;;
64653;SDS011;51065;48.884;12.598;2023-05-07T07:45:26;5.32;;;2.60;;
64653;SDS011;51065;48.884;12.598;2023-05-07T07:47:52;6.70;;;2.70;;
64653;SDS011;51065;48.884;12.598;2023-05-07T07:50:17;4.05;;;2.47;;
64653;SDS011;51065;48.884;12.598;2023-05-07T07:52:43;4.15;;;2.42;;
64653;SDS011;51065;48.884;12.598;2023-05-07T07:55:09;5.85;;;2.78;;
64653;SDS011;51065;48.884;12.598;2023-05-07T07:57:35;7.05;;;2.60;;
64653;SDS011;51065;48.884;12.598;2023-05-07T08:00:00;5.15;;;2.70;;
64653;SDS011;51065;48.884;12.598;2023-05-07T08:02:26;4.55;;;2.20;;
64653;SDS011;51065;48.884;12.598;2023-05-07T08:04:55;5.45;;;2.72;;
64653;SDS011;51065;48.884;12.598;2023-05-07T08:07:20;6.35;;;2.63;;
64653;SDS011;51065;48.884;12.598;2023-05-07T08:09:47;5.55;;;2.40;;
64653;SDS011;51065;48.884;12.598;2023-05-07T08:12:13;4.45;;;2.45;;
64653;SDS011;51065;48.884;12.598;2023-05-07T08:14:46;5.15;;;2.40;;
64653;SDS011;51065;48.884;12.598;2023-05-07T08:17:11;4.85;;;2.55;;
64653;SDS011;51065;48.884;12.598;2023-05-07T08:19:38;6.05;;;2.47;;
64653;SDS011;51065;48.884;12.598;2023-05-07T08:22:03;4.63;;;2.80;;
64653;SDS011;51065;48.884;12.598;2023-05-07T08:24:30;4.63;;;2.17;;
64653;SDS011;51065;48.884;12.598;2023-05-07T08:26:56;7.35;;;2.30;;
64653;SDS011;51065;48.884;12.598;2023-05-07T08:29:22;4.68;;;2.85;;
64653;SDS011;51065;48.884;12.598;2023-05-07T08:31:47;4.55;;;2.90;;
64653;SDS011;51065;48.884;12.598;2023-05-07T08:34:13;4.13;;;2.40;;
64653;SDS011;51065;48.884;12.598;2023-05-07T08:36:39;7.57;;;3.28;;
64653;SDS011;51065;48.884;12.598;2023-05-07T08:39:15;3.97;;;2.60;;
64653;SDS011;51065;48.884;12.598;2023-05-07T08:41:44;6.28;;;2.85;;
64653;SDS011;51065;48.884;12.598;2023-05-07T08:44:13;5.68;;;3.00;;
64653;SDS011;51065;48.884;12.598;2023-05-07T08:46:39;5.45;;;2.75;;
64653;SDS011;51065;48.884;12.598;2023-05-07T08:49:07;5.25;;;2.78;;
64653;SDS011;51065;48.884;12.598;2023-05-07T08:51:33;3.85;;;2.88;;
64653;SDS011;51065;48.884;12.598;2023-05-07T08:53:59;5.53;;;3.17;;
64653;SDS011;51065;48.884;12.598;2023-05-07T08:56:26;7.25;;;3.50;;
64653;SDS011;51065;48.884;12.598;2023-05-07T08:58:52;6.32;;;3.72;;
64653;SDS011;51065;48.884;12.598;2023-05-07T09:01:21;6.18;;;3.78;;
64653;SDS011;51065;48.884;12.598;2023-05-07T09:03:47;10.18;;;3.75;;
64653;SDS011;51065;48.884;12.598;2023-05-07T09:06:13;7.13;;;3.67;;
64653;SDS011;51065;48.884;12.598;2023-05-07T09:08:38;5.95;;;3.50;;
64653;SDS011;51065;48.884;12.598;2023-05-07T09:11:07;6.78;;;3.25;;
64653;SDS011;51065;48.884;12.598;2023-05-07T09:13:32;6.50;;;3.35;;
64653;SDS011;51065;48.884;12.598;2023-05-07T09:15:58;5.68;;;3.45;;
64653;SDS011;51065;48.884;12.598;2023-05-07T09:18:34;5.85;;;3.13;;
64653;SDS011;51065;48.884;12.598;2023-05-07T09:21:00;5.20;;;3.35;;
64653;SDS011;51065;48.884;12.598;2023-05-07T09:23:25;5.10;;;3.13;;
64653;SDS011;51065;48.884;12.598;2023-05-07T09:26:00;3.80;;;3.00;;
64653;SDS011;51065;48.884;12.598;2023-05-07T09:28:27;6.80;;;3.70;;
64653;SDS011;51065;48.884;12.598;2023-05-07T09:30:52;6.65;;;3.28;;
64653;SDS011;51065;48.884;12.598;2023-05-07T09:33:18;4.60;;;3.03;;
64653;SDS011;51065;48.884;12.598;2023-05-07T09:35:43;4.32;;;2.60;;
64653;SDS011;51065;48.884;12.598;2023-05-07T09:38:09;5.03;;;2.85;;
64653;SDS011;51065;48.884;12.598;2023-05-07T09:40:35;4.05;;;2.70;;
64653;SDS011;51065;48.884;12.598;2023-05-07T09:43:09;5.35;;;3.28;;
64653;SDS011;51065;48.884;12.598;2023-05-07T09:45:37;4.88;;;3.35;;
64653;SDS011;51065;48.884;12.598;2023-05-07T09:48:04;4.78;;;3.08;;
64653;SDS011;51065;48.884;12.598;2023-05-07T09:50:41;4.70;;;3.00;;
64653;SDS011;51065;48.884;12.598;2023-05-07T09:53:14;5.55;;;3.17;;
64653;SDS011;51065;48.884;12.598;2023-05-07T09:55:41;4.68;;;2.90;;
64653;SDS011;51065;48.884;12.598;2023-05-07T09:58:06;5.80;;;3.42;;
64653;SDS011;51065;48.884;12.598;2023-05-07T10:00:33;5.55;;;3.22;;
64653;SDS011;51065;48.884;12.598;2023-05-07T10:03:01;5.15;;;2.65;;
64653;SDS011;51065;48.884;12.598;2023-05-07T10:05:27;4.18;;;2.42;;
64653;SDS011;51065;48.884;12.598;2023-05-07T10:07:54;3.50;;;2.50;;
64653;SDS011;51065;48.884;12.598;2023-05-07T10:10:20;3.53;;;2.40;;
64653;SDS011;51065;48.884;12.598;2023-05-07T10:12:46;4.25;;;2.60;;
64653;SDS011;51065;48.884;12.598;2023-05-07T10:15:15;4.05;;;2.80;;
64653;SDS011;51065;48.884;12.598;2023-05-07T10:17:42;5.72;;;3.15;;
64653;SDS011;51065;48.884;12.598;2023-05-07T10:20:07;3.88;;;2.60;;
64653;SDS011;51065;48.884;12.598;2023-05-07T10:22:38;6.60;;;2.53;;
64653;SDS011;51065;48.884;12.598;2023-05-07T10:25:16;4.85;;;2.40;;
64653;SDS011;51065;48.884;12.598;2023-05-07T10:27:50;5.70;;;3.10;;
64653;SDS011;51065;48.884;12.598;2023-05-07T10:30:38;4.30;;;2.50;;
64653;SDS011;51065;48.884;12.598;2023-05-07T10:33:19;3.35;;;2.40;;
64653;SDS011;51065;48.884;12.598;2023-05-07T10:35:55;2.88;;;2.10;;
64653;SDS011;51065;48.884;12.598;2023-05-07T10:38:29;4.38;;;2.50;;
64653;SDS011;51065;48.884;12.598;2023-05-07T10:40:55;4.63;;;2.50;;
64653;SDS011;51065;48.884;12.598;2023-05-07T10:43:21;4.93;;;2.53;;
64653;SDS011;51065;48.884;12.598;2023-05-07T10:51:30;7.53;;;3.65;;
64653;SDS011;51065;48.884;12.598;2023-05-07T10:56:38;4.45;;;2.47;;
64653;SDS011;51065;48.884;12.598;2023-05-07T11:01:52;5.57;;;3.35;;
64653;SDS011;51065;48.884;12.598;2023-05-07T11:04:19;7.63;;;3.80;;
64653;SDS011;51065;48.884;12.598;2023-05-07T11:12:16;6.32;;;3.92;;
64653;SDS011;51065;48.884;12.598;2023-05-07T11:17:07;7.30;;;4.20;;
64653;SDS011;51065;48.884;12.598;2023-05-07T11:19:50;8.70;;;4.43;;
64653;SDS011;51065;48.884;12.598;2023-05-07T11:25:01;7.50;;;4.43;;
64653;SDS011;51065;48.884;12.598;2023-05-07T11:27:36;8.70;;;4.05;;
64653;SDS011;51065;48.884;12.598;2023-05-07T11:30:06;8.15;;;4.40;;
64653;SDS011;51065;48.884;12.598;2023-05-07T11:32:32;7.85;;;4.57;;
64653;SDS011;51065;48.884;12.598;2023-05-07T11:34:58;7.65;;;4.13;;
64653;SDS011;51065;48.884;12.598;2023-05-07T11:37:25;9.27;;;3.97;;
64653;SDS011;51065;48.884;12.598;2023-05-07T11:40:08;7.68;;;3.80;;
64653;SDS011;51065;48.884;12.598;2023-05-07T11:42:36;6.97;;;4.10;;
64653;SDS011;51065;48.884;12.598;2023-05-07T11:45:03;7.35;;;4.28;;
64653;SDS011;51065;48.884;12.598;2023-05-07T11:47:34;7.47;;;4.10;;
64653;SDS011;51065;48.884;12.598;2023-05-07T11:50:04;7.65;;;4.20;;
64653;SDS011;51065;48.884;12.598;2023-05-07T11:52:31;7.75;;;4.00;;
64653;SDS011;51065;48.884;12.598;2023-05-07T11:55:01;7.03;;;4.25;;
64653;SDS011;51065;48.884;12.598;2023-05-07T11:57:28;7.38;;;3.60;;
64653;SDS011;51065;48.884;12.598;2023-05-07T11:59:54;7.78;;;3.83;;
64653;SDS011;51065;48.884;12.598;2023-05-07T12:02:21;6.75;;;3.88;;
64653;SDS011;51065;48.884;12.598;2023-05-07T12:04:46;6.30;;;4.05;;
64653;SDS011;51065;48.884;12.598;2023-05-07T12:07:12;6.88;;;3.63;;
64653;SDS011;51065;48.884;12.598;2023-05-07T12:09:42;6.68;;;3.60;;
64653;SDS011;51065;48.884;12.598;2023-05-07T12:12:08;5.10;;;3.30;;
64653;SDS011;51065;48.884;12.598;2023-05-07T12:14:52;6.53;;;3.60;;
64653;SDS011;51065;48.884;12.598;2023-05-07T12:17:18;7.60;;;3.63;;
64653;SDS011;51065;48.884;12.598;2023-05-07T12:19:44;6.85;;;3.40;;
64653;SDS011;51065;48.884;12.598;2023-05-07T12:22:10;6.88;;;3.28;;
64653;SDS011;51065;48.884;12.598;2023-05-07T12:27:14;5.40;;;3.25;;
64653;SDS011;51065;48.884;12.598;2023-05-07T12:29:47;5.15;;;3.33;;
64653;SDS011;51065;48.884;12.598;2023-05-07T12:32:17;6.95;;;3.38;;
64653;SDS011;51065;48.884;12.598;2023-05-07T12:34:44;4.30;;;2.83;;
64653;SDS011;51065;48.884;12.598;2023-05-07T12:37:10;6.07;;;3.42;;
64653;SDS011;51065;48.884;12.598;2023-05-07T12:39:37;4.95;;;2.72;;
64653;SDS011;51065;48.884;12.598;2023-05-07T12:42:03;7.28;;;3.17;;
64653;SDS011;51065;48.884;12.598;2023-05-07T12:44:29;3.47;;;2.33;;
64653;SDS011;51065;48.884;12.598;2023-05-07T12:47:04;5.22;;;2.90;;
64653;SDS011;51065;48.884;12.598;2023-05-07T12:49:34;5.03;;;2.80;;
64653;SDS011;51065;48.884;12.598;2023-05-07T12:52:04;4.38;;;2.65;;
64653;SDS011;51065;48.884;12.598;2023-05-07T12:54:34;3.65;;;2.60;;
64653;SDS011;51065;48.884;12.598;2023-05-07T12:57:02;5.93;;;3.10;;
64653;SDS011;51065;48.884;12.598;2023-05-07T12:59:38;5.78;;;2.55;;
64653;SDS011;51065;48.884;12.598;2023-05-07T13:02:05;5.00;;;2.60;;
64653;SDS011;51065;48.884;12.598;2023-05-07T13:04:31;3.55;;;2.30;;
64653;SDS011;51065;48.884;12.598;2023-05-07T13:06:57;2.65;;;2.30;;
64653;SDS011;51065;48.884;12.598;2023-05-07T13:09:26;2.85;;;2.30;;
64653;SDS011;51065;48.884;12.598;2023-05-07T13:11:53;4.65;;;2.35;;
64653;SDS011;51065;48.884;12.598;2023-05-07T13:14:19;4.53;;;2.70;;
64653;SDS011;51065;48.884;12.598;2023-05-07T13:16:46;3.85;;;2.47;;
64653;SDS011;51065;48.884;12.598;2023-05-07T13:19:12;3.38;;;2.30;;
64653;SDS011;51065;48.884;12.598;2023-05-07T13:21:37;2.90;;;2.15;;
64653;SDS011;51065;48.884;12.598;2023-05-07T13:24:03;3.10;;;2.10;;
64653;SDS011;51065;48.884;12.598;2023-05-07T13:26:29;2.63;;;2.00;;
64653;SDS011;51065;48.884;12.598;2023-05-07T13:28:56;4.57;;;2.17;;
64653;SDS011;51065;48.884;12.598;2023-05-07T13:31:22;2.58;;;1.90;;
64653;SDS011;51065;48.884;12.598;2023-05-07T13:33:47;3.70;;;2.20;;
64653;SDS011;51065;48.884;12.598;2023-05-07T13:36:13;3.65;;;2.60;;
64653;SDS011;51065;48.884;12.598;2023-05-07T13:38:39;3.88;;;2.33;;
64653;SDS011;51065;48.884;12.598;2023-05-07T13:41:05;4.18;;;2.17;;
64653;SDS011;51065;48.884;12.598;2023-05-07T13:43:30;3.83;;;2.47;;
64653;SDS011;51065;48.884;12.598;2023-05-07T13:45:59;4.80;;;2.75;;
64653;SDS011;51065;48.884;12.598;2023-05-07T13:48:25;7.07;;;2.85;;
64653;SDS011;51065;48.884;12.598;2023-05-07T13:50:51;4.57;;;2.83;;
64653;SDS011;51065;48.884;12.598;2023-05-07T13:53:17;5.45;;;2.78;;
64653;SDS011;51065;48.884;12.598;2023-05-07T13:55:43;4.80;;;3.10;;
64653;SDS011;51065;48.884;12.598;2023-05-07T13:58:09;6.28;;;3.60;;
64653;SDS011;51065;48.884;12.598;2023-05-07T14:00:35;4.32;;;2.95;;
64653;SDS011;51065;48.884;12.598;2023-05-07T14:03:01;4.45;;;2.70;;
64653;SDS011;51065;48.884;12.598;2023-05-07T14:05:26;5.68;;;2.97;;
64653;SDS011;51065;48.884;12.598;2023-05-07T14:07:56;4.43;;;2.85;;
64653;SDS011;51065;48.884;12.598;2023-05-07T14:10:22;5.10;;;3.25;;
64653;SDS011;51065;48.884;12.598;2023-05-07T14:12:48;5.32;;;3.25;;
64653;SDS011;51065;48.884;12.598;2023-05-07T14:15:17;5.35;;;3.00;;
64653;SDS011;51065;48.884;12.598;2023-05-07T14:17:43;3.97;;;2.80;;
64653;SDS011;51065;48.884;12.598;2023-05-07T14:20:08;6.57;;;3.03;;
64653;SDS011;51065;48.884;12.598;2023-05-07T14:22:35;4.68;;;2.63;;
64653;SDS011;51065;48.884;12.598;2023-05-07T14:25:01;6.10;;;2.88;;
64653;SDS011;51065;48.884;12.598;2023-05-07T14:27:26;5.72;;;3.08;;
64653;SDS011;51065;48.884;12.598;2023-05-07T14:29:52;6.70;;;3.30;;
64653;SDS011;51065;48.884;12.598;2023-05-07T14:32:17;4.88;;;3.15;;
64653;SDS011;51065;48.884;12.598;2023-05-07T14:34:43;5.97;;;3.50;;
64653;SDS011;51065;48.884;12.598;2023-05-07T14:37:10;4.68;;;3.22;;
64653;SDS011;51065;48.884;12.598;2023-05-07T14:39:36;5.40;;;3.03;;
64653;SDS011;51065;48.884;12.598;2023-05-07T14:42:01;6.63;;;3.20;;
64653;SDS011;51065;48.884;12.598;2023-05-07T14:44:27;5.63;;;3.10;;
64653;SDS011;51065;48.884;12.598;2023-05-07T14:46:53;3.22;;;2.58;;
64653;SDS011;51065;48.884;12.598;2023-05-07T14:49:19;5.70;;;2.70;;
64653;SDS011;51065;48.884;12.598;2023-05-07T14:51:45;4.72;;;2.85;;
64653;SDS011;51065;48.884;12.598;2023-05-07T14:54:12;5.43;;;3.10;;
64653;SDS011;51065;48.884;12.598;2023-05-07T14:56:38;4.68;;;2.97;;
64653;SDS011;51065;48.884;12.598;2023-05-07T14:59:04;3.17;;;2.05;;
64653;SDS011;51065;48.884;12.598;2023-05-07T15:01:30;2.03;;;1.50;;